Time;durP1;ratioP1;P1;durP2;ratioP2;P2;SDS_P1;SDS_P2;PMS_P1;PMS_P2;Temp;Humidity;BMP_temperature;BMP_pressure;BME280_temperature;BME280_humidity;BME280_pressure;Samples;Min_cycle;Max_cycle;Signal;HPM_P1;HPM_P2
2021/09/18 00:01:36;;;;;;;13.00;9.00;;;;;;;;;;5051700;28;20027;-61
2021/09/18 00:04:05;;;;;;;12.60;8.77;;;;;;;;;;5051308;28;20033;-62
2021/09/18 00:06:31;;;;;;;12.73;8.70;;;;;;;;;;5051431;28;20027;-62
2021/09/18 00:08:57;;;;;;;12.50;8.82;;;;;;;;;;5051374;28;20033;-62
2021/09/18 00:11:23;;;;;;;13.02;8.73;;;;;;;;;;5051336;28;20480;-61
2021/09/18 00:13:49;;;;;;;15.00;8.23;;;;;;;;;;5050914;28;20029;-61
2021/09/18 00:16:15;;;;;;;10.80;8.20;;;;;;;;;;5051189;28;20054;-62
2021/09/18 00:18:41;;;;;;;12.18;7.93;;;;;;;;;;5051250;28;20100;-59
2021/09/18 00:21:07;;;;;;;12.38;7.43;;;;;;;;;;5051153;28;20033;-59
2021/09/18 00:23:33;;;;;;;10.18;7.25;;;;;;;;;;5051011;28;20323;-62
2021/09/18 00:25:59;;;;;;;10.60;6.82;;;;;;;;;;5051219;28;20396;-61
2021/09/18 00:28:25;;;;;;;9.07;6.70;;;;;;;;;;5051134;28;20435;-62
2021/09/18 00:30:52;;;;;;;10.77;6.97;;;;;;;;;;5050743;28;20032;-60
2021/09/18 00:33:18;;;;;;;9.60;6.85;;;;;;;;;;5050536;28;20407;-63
2021/09/18 00:35:44;;;;;;;11.35;6.65;;;;;;;;;;5050246;28;20025;-63
2021/09/18 00:38:10;;;;;;;9.98;6.40;;;;;;;;;;5050522;28;20476;-63
2021/09/18 00:40:36;;;;;;;10.13;6.53;;;;;;;;;;5050816;28;20029;-64
2021/09/18 00:43:02;;;;;;;8.13;5.85;;;;;;;;;;5050683;28;20032;-63
2021/09/18 00:45:28;;;;;;;12.90;6.25;;;;;;;;;;5050892;28;20031;-63
2021/09/18 00:47:54;;;;;;;8.80;6.00;;;;;;;;;;5050422;28;20029;-63
2021/09/18 00:50:20;;;;;;;8.13;5.75;;;;;;;;;;5050507;28;20124;-63
2021/09/18 00:52:47;;;;;;;8.82;6.05;;;;;;;;;;5050760;28;20162;-63
2021/09/18 00:55:15;;;;;;;7.82;5.43;;;;;;;;;;5050636;28;20473;-63
2021/09/18 00:57:41;;;;;;;8.40;5.65;;;;;;;;;;5050894;28;20433;-62
2021/09/18 01:00:09;;;;;;;7.80;5.97;;;;;;;;;;5050497;28;20135;-62
2021/09/18 01:02:35;;;;;;;8.73;5.85;;;;;;;;;;5050804;28;20350;-63
2021/09/18 01:05:02;;;;;;;8.35;5.78;;;;;;;;;;5051301;28;20052;-64
2021/09/18 01:07:28;;;;;;;7.78;5.20;;;;;;;;;;5050433;28;20025;-63
2021/09/18 01:09:54;;;;;;;6.70;5.50;;;;;;;;;;5050417;28;20103;-60
2021/09/18 01:12:20;;;;;;;8.45;5.57;;;;;;;;;;5050553;28;20374;-62
2021/09/18 01:14:48;;;;;;;9.35;6.00;;;;;;;;;;5050617;28;20017;-59
2021/09/18 01:17:14;;;;;;;6.55;4.90;;;;;;;;;;5050556;28;20021;-62
2021/09/18 01:19:41;;;;;;;8.88;5.28;;;;;;;;;;5050470;28;20018;-63
2021/09/18 01:22:07;;;;;;;6.93;4.97;;;;;;;;;;5050760;28;20059;-62
2021/09/18 01:24:33;;;;;;;8.88;5.15;;;;;;;;;;5050118;28;20064;-63
2021/09/18 01:27:00;;;;;;;6.50;5.38;;;;;;;;;;5050282;28;20033;-63
2021/09/18 01:29:26;;;;;;;10.52;5.68;;;;;;;;;;5050435;28;20044;-63
2021/09/18 01:31:52;;;;;;;7.97;5.70;;;;;;;;;;5050254;28;20051;-62
2021/09/18 01:34:18;;;;;;;8.30;5.90;;;;;;;;;;5050408;28;20021;-62
2021/09/18 01:36:44;;;;;;;7.18;5.50;;;;;;;;;;5050206;28;20092;-63
2021/09/18 01:39:11;;;;;;;8.30;5.78;;;;;;;;;;5050117;28;20461;-64
2021/09/18 01:41:37;;;;;;;8.00;5.82;;;;;;;;;;5050101;28;20029;-61
2021/09/18 01:44:03;;;;;;;8.65;5.75;;;;;;;;;;5050340;28;20116;-60
2021/09/18 01:46:30;;;;;;;7.18;5.65;;;;;;;;;;5050261;28;20055;-60
2021/09/18 01:48:56;;;;;;;9.18;6.10;;;;;;;;;;5049277;28;20033;-63
2021/09/18 01:51:22;;;;;;;9.98;5.95;;;;;;;;;;5049908;28;20059;-63
2021/09/18 01:53:48;;;;;;;7.78;5.63;;;;;;;;;;5049922;28;20513;-62
2021/09/18 01:56:15;;;;;;;8.45;6.00;;;;;;;;;;5050120;28;20552;-63
2021/09/18 01:58:41;;;;;;;8.18;5.75;;;;;;;;;;5051297;28;20021;-61
2021/09/18 02:01:07;;;;;;;7.70;5.43;;;;;;;;;;5054453;28;20107;-60
2021/09/18 02:03:33;;;;;;;9.27;5.78;;;;;;;;;;5055146;28;20104;-60
2021/09/18 02:05:59;;;;;;;7.28;5.95;;;;;;;;;;5054171;28;20480;-62
2021/09/18 02:08:26;;;;;;;8.25;6.22;;;;;;;;;;5053540;28;20025;-63
2021/09/18 02:10:53;;;;;;;7.60;5.50;;;;;;;;;;5053522;28;20071;-59
2021/09/18 02:13:19;;;;;;;7.22;5.50;;;;;;;;;;5053370;28;20029;-61
2021/09/18 02:15:45;;;;;;;6.68;5.50;;;;;;;;;;5053384;28;20021;-63
2021/09/18 02:18:11;;;;;;;7.30;5.55;;;;;;;;;;5053229;28;20021;-59
2021/09/18 02:20:38;;;;;;;7.93;5.60;;;;;;;;;;5053574;28;20029;-62
2021/09/18 02:23:05;;;;;;;7.63;5.47;;;;;;;;;;5053509;28;20524;-61
2021/09/18 02:25:31;;;;;;;8.00;5.55;;;;;;;;;;5053055;28;20031;-60
2021/09/18 02:27:57;;;;;;;9.25;5.53;;;;;;;;;;5053333;28;20115;-59
2021/09/18 02:30:25;;;;;;;7.38;5.50;;;;;;;;;;5053247;28;20021;-60
2021/09/18 02:32:51;;;;;;;7.28;4.88;;;;;;;;;;5053556;28;20032;-62
2021/09/18 02:35:18;;;;;;;6.80;5.45;;;;;;;;;;5053390;28;20078;-61
2021/09/18 02:37:45;;;;;;;6.25;5.28;;;;;;;;;;5052830;28;20120;-63
2021/09/18 02:40:12;;;;;;;7.00;5.05;;;;;;;;;;5053259;28;20025;-60
2021/09/18 02:42:39;;;;;;;7.43;5.00;;;;;;;;;;5052877;28;20031;-60
2021/09/18 02:45:06;;;;;;;7.70;5.03;;;;;;;;;;5052837;28;20059;-62
2021/09/18 02:47:32;;;;;;;8.15;4.57;;;;;;;;;;5052999;28;20025;-62
2021/09/18 02:49:58;;;;;;;7.68;5.38;;;;;;;;;;5052521;28;20028;-63
2021/09/18 02:52:24;;;;;;;7.72;5.28;;;;;;;;;;5052569;28;20049;-60
2021/09/18 02:54:50;;;;;;;7.65;5.40;;;;;;;;;;5052645;28;20463;-63
2021/09/18 02:57:16;;;;;;;7.18;5.40;;;;;;;;;;5052647;28;20346;-62
2021/09/18 02:59:42;;;;;;;7.78;5.10;;;;;;;;;;5052484;28;20487;-63
2021/09/18 03:02:08;;;;;;;7.68;5.22;;;;;;;;;;5052553;28;20028;-62
2021/09/18 03:04:34;;;;;;;6.75;5.15;;;;;;;;;;5052805;28;20523;-63
2021/09/18 03:07:00;;;;;;;8.52;4.90;;;;;;;;;;5052708;28;20036;-61
2021/09/18 03:09:26;;;;;;;7.10;5.38;;;;;;;;;;5052334;28;20484;-62
2021/09/18 03:11:52;;;;;;;6.95;5.15;;;;;;;;;;5052058;28;20106;-62
2021/09/18 03:14:18;;;;;;;6.70;5.13;;;;;;;;;;5052333;28;20036;-59
2021/09/18 03:16:44;;;;;;;8.30;5.00;;;;;;;;;;5052347;28;20032;-62
2021/09/18 03:19:10;;;;;;;7.05;5.57;;;;;;;;;;5052186;28;20048;-64
2021/09/18 03:21:36;;;;;;;7.53;4.90;;;;;;;;;;5052333;28;20108;-63
2021/09/18 03:24:02;;;;;;;10.50;5.25;;;;;;;;;;5052165;28;20111;-63
2021/09/18 03:26:28;;;;;;;8.40;5.30;;;;;;;;;;5051780;28;20033;-62
2021/09/18 03:28:54;;;;;;;7.53;5.22;;;;;;;;;;5051966;28;20503;-60
2021/09/18 03:31:20;;;;;;;5.80;4.68;;;;;;;;;;5051745;28;20036;-62
2021/09/18 03:33:46;;;;;;;9.45;5.07;;;;;;;;;;5051931;28;20037;-62
2021/09/18 03:36:13;;;;;;;7.28;5.40;;;;;;;;;;5052107;28;20396;-63
2021/09/18 03:38:39;;;;;;;8.45;5.15;;;;;;;;;;5051941;28;20109;-62
2021/09/18 03:41:05;;;;;;;7.38;5.47;;;;;;;;;;5052033;28;20025;-61
2021/09/18 03:43:31;;;;;;;9.18;5.72;;;;;;;;;;5051722;28;20031;-62
2021/09/18 03:45:57;;;;;;;7.55;5.45;;;;;;;;;;5051711;28;20031;-61
2021/09/18 03:48:23;;;;;;;9.70;6.00;;;;;;;;;;5051849;28;20376;-60
2021/09/18 03:50:49;;;;;;;8.93;5.90;;;;;;;;;;5051323;28;20045;-62
2021/09/18 03:53:15;;;;;;;10.48;5.68;;;;;;;;;;5051487;28;20095;-63
2021/09/18 03:55:41;;;;;;;7.70;5.57;;;;;;;;;;5051348;28;20017;-61
2021/09/18 03:58:07;;;;;;;11.73;6.13;;;;;;;;;;5050743;28;20087;-60
2021/09/18 04:00:34;;;;;;;8.38;5.78;;;;;;;;;;5049686;28;20092;-61
2021/09/18 04:03:00;;;;;;;7.93;5.70;;;;;;;;;;5050476;28;20033;-60
2021/09/18 04:05:26;;;;;;;9.02;5.55;;;;;;;;;;5051298;28;20025;-63
2021/09/18 04:07:52;;;;;;;8.55;5.55;;;;;;;;;;5051288;28;20111;-59
2021/09/18 04:10:18;;;;;;;7.55;5.35;;;;;;;;;;5051200;28;20025;-62
2021/09/18 04:12:44;;;;;;;9.90;6.50;;;;;;;;;;5051506;28;20029;-62
2021/09/18 04:15:10;;;;;;;8.57;6.60;;;;;;;;;;5051142;28;20044;-62
2021/09/18 04:17:36;;;;;;;8.38;5.90;;;;;;;;;;5051146;28;20029;-60
2021/09/18 04:20:03;;;;;;;11.82;6.20;;;;;;;;;;5051109;28;20017;-60
2021/09/18 04:22:29;;;;;;;11.70;6.15;;;;;;;;;;5050667;28;20033;-59
2021/09/18 04:24:55;;;;;;;8.68;6.40;;;;;;;;;;5051038;28;20017;-62
2021/09/18 04:27:21;;;;;;;8.60;6.43;;;;;;;;;;5051004;28;20055;-62
2021/09/18 04:29:47;;;;;;;8.02;5.68;;;;;;;;;;5051058;28;20028;-60
2021/09/18 04:32:13;;;;;;;13.07;6.07;;;;;;;;;;5050832;28;20028;-60
2021/09/18 04:34:39;;;;;;;9.27;6.15;;;;;;;;;;5055531;28;20522;-61
2021/09/18 04:37:05;;;;;;;10.32;6.38;;;;;;;;;;5050928;28;20473;-62
2021/09/18 04:39:32;;;;;;;9.23;6.25;;;;;;;;;;5050941;28;20033;-59
2021/09/18 04:41:58;;;;;;;11.90;6.22;;;;;;;;;;5050585;28;20091;-60
2021/09/18 04:47:03;;;;;;;9.20;5.97;;;;;;;;;;5704400;22;20028;-59
2021/09/18 04:49:29;;;;;;;9.80;6.03;;;;;;;;;;5009255;28;20057;-64
2021/09/18 04:51:56;;;;;;;9.07;6.32;;;;;;;;;;5032909;28;20390;-60
2021/09/18 04:54:22;;;;;;;10.52;5.95;;;;;;;;;;5031271;28;20018;-66
2021/09/18 04:56:48;;;;;;;9.60;6.22;;;;;;;;;;5013030;28;20334;-64
2021/09/18 15:09:15;;;;;;;6.13;1.92;;;;;;;;;;4824462;27;20049;-69
2021/09/18 15:11:42;;;;;;;8.35;2.35;;;;;;;;;;4895720;29;20072;-68
2021/09/18 15:14:08;;;;;;;6.13;2.75;;;;;;;;;;4897499;29;20060;-67
2021/09/18 15:16:35;;;;;;;2.92;1.77;;;;;;;;;;4897243;29;20046;-67
2021/09/18 15:19:01;;;;;;;2.45;1.75;;;;;;;;;;4897167;29;20034;-68
2021/09/18 15:21:27;;;;;;;4.97;2.10;;;;;;;;;;4896663;29;20429;-66
2021/09/18 15:23:53;;;;;;;5.05;2.35;;;;;;;;;;4897228;29;20036;-67
2021/09/18 15:26:19;;;;;;;5.55;2.13;;;;;;;;;;4896822;29;20077;-67
2021/09/18 15:28:45;;;;;;;4.22;1.90;;;;;;;;;;4896612;29;20059;-67
2021/09/18 15:31:11;;;;;;;6.60;1.98;;;;;;;;;;4896299;29;20469;-67
2021/09/18 15:33:37;;;;;;;5.22;1.92;;;;;;;;;;4896845;29;20609;-72
2021/09/18 15:36:03;;;;;;;3.97;1.98;;;;;;;;;;4896725;29;20037;-68
2021/09/18 15:38:29;;;;;;;4.60;2.97;;;;;;;;;;4896832;29;20032;-68
2021/09/18 15:40:55;;;;;;;8.32;4.60;;;;;;;;;;4896512;29;20495;-71
2021/09/18 15:43:22;;;;;;;6.43;3.30;;;;;;;;;;4896732;29;20028;-71
2021/09/18 15:45:48;;;;;;;7.68;2.58;;;;;;;;;;4894993;29;20036;-70
2021/09/18 15:48:15;;;;;;;7.00;2.65;;;;;;;;;;4896492;29;20040;-69
2021/09/18 15:50:41;;;;;;;6.28;2.55;;;;;;;;;;4896306;29;20032;-69
2021/09/18 15:53:09;;;;;;;4.82;2.58;;;;;;;;;;4894719;29;20092;-69
2021/09/18 15:55:35;;;;;;;4.05;2.50;;;;;;;;;;4896857;29;20027;-68
2021/09/18 15:58:01;;;;;;;5.25;2.55;;;;;;;;;;4896182;29;20060;-69
2021/09/18 16:00:27;;;;;;;3.58;2.25;;;;;;;;;;4895115;29;20033;-71
2021/09/18 16:02:53;;;;;;;5.95;2.72;;;;;;;;;;4896005;29;20039;-70
2021/09/18 16:05:19;;;;;;;3.35;2.15;;;;;;;;;;4896001;29;20190;-69
2021/09/18 16:07:46;;;;;;;4.25;2.30;;;;;;;;;;4895878;29;20082;-70
2021/09/18 16:10:12;;;;;;;4.97;2.88;;;;;;;;;;4895722;29;20076;-69
2021/09/18 16:12:38;;;;;;;3.63;2.10;;;;;;;;;;4895788;29;20100;-69
2021/09/18 16:15:05;;;;;;;7.20;2.58;;;;;;;;;;4895836;29;20481;-70
2021/09/18 16:17:31;;;;;;;4.25;2.42;;;;;;;;;;4895144;29;20048;-68
2021/09/18 16:19:57;;;;;;;4.43;2.40;;;;;;;;;;4895819;29;20028;-69
2021/09/18 16:22:23;;;;;;;5.97;2.20;;;;;;;;;;4895696;29;20048;-67
2021/09/18 16:24:49;;;;;;;3.78;2.20;;;;;;;;;;4895766;29;20100;-67
2021/09/18 16:27:15;;;;;;;3.22;2.08;;;;;;;;;;4895822;29;20033;-68
2021/09/18 16:29:41;;;;;;;5.85;2.20;;;;;;;;;;4895849;29;20036;-67
2021/09/18 16:32:07;;;;;;;8.00;2.78;;;;;;;;;;4894689;29;20335;-70
2021/09/18 16:34:33;;;;;;;5.97;2.38;;;;;;;;;;4895609;29;20104;-68
2021/09/18 16:36:59;;;;;;;4.32;2.30;;;;;;;;;;4878662;29;20128;-68
2021/09/18 16:39:25;;;;;;;4.97;2.47;;;;;;;;;;4894529;29;20025;-70
2021/09/18 16:41:51;;;;;;;5.68;2.67;;;;;;;;;;4914160;29;20491;-69
2021/09/18 16:44:17;;;;;;;4.40;2.38;;;;;;;;;;4913515;29;20106;-69
2021/09/18 16:46:43;;;;;;;5.55;2.50;;;;;;;;;;4914448;29;20028;-69
2021/09/18 16:49:09;;;;;;;7.00;2.25;;;;;;;;;;4914367;29;20620;-69
2021/09/18 16:51:36;;;;;;;5.18;1.83;;;;;;;;;;4914203;29;20072;-69
2021/09/18 16:54:02;;;;;;;5.32;2.30;;;;;;;;;;4913932;29;20500;-70
2021/09/18 16:56:28;;;;;;;3.58;2.08;;;;;;;;;;4914280;29;20444;-69
2021/09/18 16:58:54;;;;;;;3.33;1.70;;;;;;;;;;4911145;29;20047;-69
2021/09/18 17:01:20;;;;;;;5.90;2.10;;;;;;;;;;4895061;29;20036;-69
2021/09/18 17:03:46;;;;;;;3.63;1.98;;;;;;;;;;4895082;29;20115;-68
2021/09/18 17:06:12;;;;;;;3.67;2.10;;;;;;;;;;4878181;29;20081;-68
2021/09/18 17:08:38;;;;;;;3.70;2.25;;;;;;;;;;4892648;29;20052;-69
2021/09/18 17:11:04;;;;;;;5.07;2.17;;;;;;;;;;4894014;29;20060;-73
2021/09/18 17:13:30;;;;;;;3.15;1.90;;;;;;;;;;4894976;29;20028;-69
2021/09/18 17:15:56;;;;;;;3.45;2.38;;;;;;;;;;4895173;29;20017;-70
2021/09/18 17:18:22;;;;;;;3.70;2.38;;;;;;;;;;4895134;29;20025;-71
2021/09/18 17:20:48;;;;;;;3.50;2.35;;;;;;;;;;4895136;29;20032;-69
2021/09/18 17:23:14;;;;;;;4.72;2.55;;;;;;;;;;4894730;29;20436;-70
2021/09/18 17:25:41;;;;;;;7.10;2.55;;;;;;;;;;4895003;29;20384;-69
2021/09/18 17:28:07;;;;;;;5.57;2.80;;;;;;;;;;4895658;29;20020;-69
2021/09/18 17:30:33;;;;;;;5.82;3.22;;;;;;;;;;4899104;29;20350;-69
2021/09/18 17:32:59;;;;;;;12.50;4.20;;;;;;;;;;4898934;29;20066;-69
2021/09/18 17:35:26;;;;;;;5.63;2.70;;;;;;;;;;4898322;29;20033;-67
2021/09/18 17:37:52;;;;;;;6.20;2.67;;;;;;;;;;4898865;29;20037;-66
2021/09/18 17:40:18;;;;;;;4.85;2.92;;;;;;;;;;4881939;29;20056;-65
2021/09/18 17:42:44;;;;;;;5.88;3.20;;;;;;;;;;4862953;29;20472;-64
2021/09/18 17:45:10;;;;;;;10.20;3.10;;;;;;;;;;4879800;29;20395;-65
2021/09/18 17:47:36;;;;;;;7.63;2.97;;;;;;;;;;4879306;29;20045;-65
2021/09/18 17:50:03;;;;;;;7.65;2.67;;;;;;;;;;4879912;29;20694;-65
2021/09/18 17:52:29;;;;;;;6.97;2.85;;;;;;;;;;4879364;29;20033;-65
2021/09/18 17:54:55;;;;;;;6.05;2.85;;;;;;;;;;4879608;29;20029;-65
2021/09/18 17:57:25;;;;;;;7.78;2.97;;;;;;;;;;4879589;29;20029;-67
2021/09/18 17:59:51;;;;;;;4.82;2.90;;;;;;;;;;4879694;29;20067;-65
2021/09/18 18:02:17;;;;;;;5.78;2.60;;;;;;;;;;4880038;29;20032;-64
2021/09/18 18:04:43;;;;;;;7.38;3.53;;;;;;;;;;4879798;29;20033;-65
2021/09/18 18:07:09;;;;;;;8.15;3.28;;;;;;;;;;4879600;29;20047;-64
2021/09/18 18:09:35;;;;;;;6.70;3.60;;;;;;;;;;4878914;29;20021;-63
2021/09/18 18:12:02;;;;;;;6.57;3.20;;;;;;;;;;4878771;29;20036;-64
2021/09/18 18:14:28;;;;;;;6.45;3.45;;;;;;;;;;4879385;29;20097;-64
2021/09/18 18:16:54;;;;;;;6.47;2.97;;;;;;;;;;4879074;29;20040;-64
2021/09/18 18:19:20;;;;;;;5.88;3.38;;;;;;;;;;4879000;29;20499;-66
2021/09/18 18:21:46;;;;;;;6.35;3.30;;;;;;;;;;4878568;29;20043;-66
2021/09/18 18:24:12;;;;;;;7.68;3.15;;;;;;;;;;4888647;29;20116;-65
2021/09/18 18:26:38;;;;;;;6.65;3.40;;;;;;;;;;4897181;29;20485;-67
2021/09/18 18:29:04;;;;;;;8.45;3.45;;;;;;;;;;4897795;29;20033;-67
2021/09/18 18:31:31;;;;;;;4.53;3.10;;;;;;;;;;4896613;29;20389;-66
2021/09/18 18:33:57;;;;;;;4.47;2.85;;;;;;;;;;4897436;29;20036;-67
2021/09/18 18:36:23;;;;;;;9.40;3.60;;;;;;;;;;4897206;29;20036;-66
2021/09/18 18:38:49;;;;;;;5.88;3.05;;;;;;;;;;4897334;29;20128;-65
2021/09/18 18:41:15;;;;;;;6.75;3.15;;;;;;;;;;4896806;29;20028;-65
2021/09/18 18:43:41;;;;;;;5.70;3.40;;;;;;;;;;4896589;29;20036;-67
2021/09/18 18:46:07;;;;;;;9.18;3.25;;;;;;;;;;4897208;29;20039;-67
2021/09/18 18:48:33;;;;;;;6.10;3.25;;;;;;;;;;4897543;29;20048;-67
2021/09/18 18:50:59;;;;;;;12.50;3.08;;;;;;;;;;4897510;29;20021;-72
2021/09/18 18:53:25;;;;;;;8.27;3.47;;;;;;;;;;4897031;29;20404;-65
2021/09/18 18:55:51;;;;;;;6.50;3.28;;;;;;;;;;4896913;29;20032;-66
2021/09/18 18:58:17;;;;;;;8.95;3.47;;;;;;;;;;4897165;29;20112;-64
2021/09/18 19:00:44;;;;;;;10.70;4.20;;;;;;;;;;4897138;29;20037;-66
2021/09/18 19:03:10;;;;;;;9.10;3.60;;;;;;;;;;4897165;29;20040;-68
2021/09/18 19:05:36;;;;;;;6.07;3.45;;;;;;;;;;4897286;29;20084;-65
2021/09/18 19:08:04;;;;;;;7.85;4.18;;;;;;;;;;4896544;29;20593;-64
2021/09/18 19:10:30;;;;;;;12.80;4.18;;;;;;;;;;4896950;29;20024;-66
2021/09/18 19:12:56;;;;;;;10.25;4.00;;;;;;;;;;4894210;29;20037;-67
2021/09/18 19:15:24;;;;;;;15.07;7.78;;;;;;;;;;4893496;29;20037;-69
2021/09/18 19:17:50;;;;;;;12.73;4.32;;;;;;;;;;4895549;29;20131;-67
2021/09/18 19:20:16;;;;;;;6.60;4.15;;;;;;;;;;4894593;29;20120;-66
2021/09/18 19:22:43;;;;;;;7.68;4.30;;;;;;;;;;4895645;29;20040;-69
2021/09/18 19:25:10;;;;;;;8.82;4.30;;;;;;;;;;4895931;29;20487;-69
2021/09/18 19:27:36;;;;;;;7.25;3.97;;;;;;;;;;4894829;29;20059;-70
2021/09/18 19:30:03;;;;;;;10.32;4.05;;;;;;;;;;4895911;29;20020;-68
2021/09/18 19:32:30;;;;;;;7.68;3.85;;;;;;;;;;4896322;29;20055;-68
2021/09/18 19:34:56;;;;;;;6.82;3.50;;;;;;;;;;4895974;29;20030;-62
2021/09/18 19:37:22;;;;;;;7.47;3.78;;;;;;;;;;4895861;29;20149;-62
2021/09/18 19:39:48;;;;;;;9.25;4.18;;;;;;;;;;4895369;29;20032;-63
2021/09/18 19:42:14;;;;;;;12.07;5.40;;;;;;;;;;4895698;29;20115;-61
2021/09/18 19:44:40;;;;;;;9.43;5.15;;;;;;;;;;4896333;29;20489;-64
2021/09/18 19:47:07;;;;;;;8.10;4.18;;;;;;;;;;4896217;29;20793;-63
2021/09/18 19:49:33;;;;;;;8.02;3.58;;;;;;;;;;4895374;29;20065;-63
2021/09/18 19:51:59;;;;;;;6.65;3.80;;;;;;;;;;4894724;29;20384;-60
2021/09/18 19:54:25;;;;;;;9.10;4.55;;;;;;;;;;4913070;29;20032;-62
2021/09/18 19:56:51;;;;;;;8.40;4.00;;;;;;;;;;4914235;29;20034;-62
2021/09/18 19:59:17;;;;;;;10.20;4.32;;;;;;;;;;4914348;29;20036;-61
2021/09/18 20:01:43;;;;;;;8.55;4.25;;;;;;;;;;4914209;29;20032;-61
2021/09/18 20:04:09;;;;;;;8.30;4.40;;;;;;;;;;4915077;29;20031;-62
2021/09/18 20:06:35;;;;;;;8.40;4.60;;;;;;;;;;4914129;29;20511;-61
2021/09/18 20:09:01;;;;;;;13.77;4.82;;;;;;;;;;4913921;29;20143;-62
2021/09/18 20:11:28;;;;;;;8.52;4.07;;;;;;;;;;4914506;29;20067;-62
2021/09/18 20:13:54;;;;;;;8.57;3.70;;;;;;;;;;4914738;29;20186;-62
2021/09/18 20:16:20;;;;;;;7.47;3.88;;;;;;;;;;4913990;29;20028;-63
2021/09/18 20:18:46;;;;;;;7.40;3.88;;;;;;;;;;4914654;29;20032;-64
2021/09/18 20:21:12;;;;;;;8.27;3.78;;;;;;;;;;4914834;29;20035;-63
2021/09/18 20:23:38;;;;;;;9.07;3.92;;;;;;;;;;4896904;29;20119;-63
2021/09/18 20:26:05;;;;;;;7.75;4.22;;;;;;;;;;4914581;29;20021;-62
2021/09/18 20:28:31;;;;;;;8.25;4.55;;;;;;;;;;4915468;29;20565;-64
2021/09/18 20:30:58;;;;;;;7.00;4.00;;;;;;;;;;4913811;29;20032;-65
2021/09/18 20:33:24;;;;;;;6.15;3.63;;;;;;;;;;4914554;29;20040;-63
2021/09/18 20:35:50;;;;;;;8.00;4.30;;;;;;;;;;4914075;29;20024;-63
2021/09/18 20:38:16;;;;;;;8.93;4.15;;;;;;;;;;4913621;29;20114;-64
2021/09/18 20:40:42;;;;;;;7.90;3.97;;;;;;;;;;4913893;29;20031;-62
2021/09/18 20:43:09;;;;;;;9.15;4.22;;;;;;;;;;4914391;29;20028;-65
2021/09/18 20:45:35;;;;;;;9.45;4.75;;;;;;;;;;4914539;29;20028;-63
2021/09/18 20:48:01;;;;;;;7.78;4.03;;;;;;;;;;4914634;29;20039;-62
2021/09/18 20:50:29;;;;;;;9.98;4.70;;;;;;;;;;4914820;29;20021;-63
2021/09/18 20:52:56;;;;;;;11.35;5.43;;;;;;;;;;4913964;29;20143;-63
2021/09/18 20:55:22;;;;;;;9.98;4.20;;;;;;;;;;4914449;29;20024;-63
2021/09/18 20:57:48;;;;;;;11.13;4.57;;;;;;;;;;4914310;29;20039;-64
2021/09/18 21:00:14;;;;;;;9.05;4.88;;;;;;;;;;4911756;29;20060;-64
2021/09/18 21:05:26;;;;;;;9.25;4.53;;;;;;;;;;4913814;29;20043;-64
2021/09/18 21:07:54;;;;;;;9.50;4.70;;;;;;;;;;4912871;29;20064;-64
2021/09/18 21:10:20;;;;;;;9.40;4.20;;;;;;;;;;4913607;29;20035;-63
2021/09/18 21:12:46;;;;;;;8.40;4.03;;;;;;;;;;4914106;29;20043;-62
2021/09/18 21:15:12;;;;;;;9.70;5.03;;;;;;;;;;4906763;29;20033;-63
2021/09/18 21:17:39;;;;;;;11.88;6.40;;;;;;;;;;4884821;29;20029;-64
2021/09/18 21:20:06;;;;;;;11.75;6.10;;;;;;;;;;4885328;29;20025;-64
2021/09/18 21:22:32;;;;;;;11.00;5.38;;;;;;;;;;4878516;29;20032;-65
2021/09/18 21:24:58;;;;;;;14.35;6.10;;;;;;;;;;4876581;29;20166;-64
2021/09/18 21:27:24;;;;;;;17.85;10.30;;;;;;;;;;4876445;29;20541;-63
2021/09/18 21:29:50;;;;;;;29.38;15.40;;;;;;;;;;4876504;29;20791;-62
2021/09/18 21:32:16;;;;;;;22.08;11.75;;;;;;;;;;4876428;29;20043;-64
2021/09/18 21:34:45;;;;;;;17.58;8.75;;;;;;;;;;4876479;29;20393;-63
2021/09/18 21:37:11;;;;;;;11.15;5.90;;;;;;;;;;4876235;29;20036;-63
2021/09/18 21:39:37;;;;;;;13.05;5.13;;;;;;;;;;4876298;29;20061;-64
2021/09/18 21:42:03;;;;;;;10.85;6.97;;;;;;;;;;4876560;29;20537;-64
2021/09/18 21:44:29;;;;;;;12.60;5.97;;;;;;;;;;4872939;29;20029;-62
2021/09/18 21:46:55;;;;;;;10.63;5.72;;;;;;;;;;4875436;29;20081;-63
2021/09/18 21:49:21;;;;;;;9.75;4.20;;;;;;;;;;4876254;29;20453;-62
2021/09/18 21:51:47;;;;;;;7.38;4.75;;;;;;;;;;4876130;29;20394;-60
2021/09/18 21:54:14;;;;;;;7.78;3.85;;;;;;;;;;4876551;29;20059;-61
2021/09/18 21:56:40;;;;;;;7.15;4.10;;;;;;;;;;4876513;29;20061;-60
2021/09/18 21:59:06;;;;;;;8.00;4.45;;;;;;;;;;4876375;29;20033;-59
2021/09/18 22:01:33;;;;;;;7.30;3.90;;;;;;;;;;4876493;29;20237;-61
2021/09/18 22:04:00;;;;;;;6.88;4.10;;;;;;;;;;4876384;29;20069;-61
2021/09/18 22:06:27;;;;;;;7.20;4.20;;;;;;;;;;4876598;29;20029;-61
2021/09/18 22:08:54;;;;;;;8.98;3.70;;;;;;;;;;4876026;29;20057;-61
2021/09/18 22:11:21;;;;;;;7.43;4.30;;;;;;;;;;4876405;29;20050;-61
2021/09/18 22:13:48;;;;;;;5.95;3.90;;;;;;;;;;4876297;29;20037;-60
2021/09/18 22:16:14;;;;;;;6.68;4.03;;;;;;;;;;4877919;29;20025;-65
2021/09/18 22:18:40;;;;;;;10.57;4.78;;;;;;;;;;4879562;29;20088;-61
2021/09/18 22:21:07;;;;;;;7.47;4.25;;;;;;;;;;4879376;29;20029;-60
2021/09/18 22:23:34;;;;;;;11.93;4.15;;;;;;;;;;4879654;29;20412;-59
2021/09/18 22:26:00;;;;;;;8.15;4.72;;;;;;;;;;4879906;29;20111;-59
2021/09/18 22:28:26;;;;;;;7.97;4.15;;;;;;;;;;4879582;29;20047;-59
2021/09/18 22:30:52;;;;;;;9.02;4.30;;;;;;;;;;4879520;29;20028;-62
2021/09/18 22:33:18;;;;;;;7.20;3.97;;;;;;;;;;4879301;29;20037;-60
2021/09/18 22:35:44;;;;;;;8.75;3.97;;;;;;;;;;4879438;29;20096;-59
2021/09/18 22:38:10;;;;;;;8.05;4.13;;;;;;;;;;4879239;29;20040;-61
2021/09/18 22:40:36;;;;;;;6.80;4.10;;;;;;;;;;4879166;29;20029;-59
2021/09/18 22:43:02;;;;;;;7.57;4.20;;;;;;;;;;4879177;29;20033;-60
2021/09/18 22:45:28;;;;;;;6.43;3.83;;;;;;;;;;4879359;29;20385;-60
2021/09/18 22:47:54;;;;;;;6.65;3.80;;;;;;;;;;4879344;29;20045;-61
2021/09/18 22:50:20;;;;;;;6.15;3.65;;;;;;;;;;4879378;29;20025;-60
2021/09/18 22:52:46;;;;;;;4.93;3.15;;;;;;;;;;4862450;29;20111;-60
2021/09/18 22:55:12;;;;;;;5.68;3.30;;;;;;;;;;4879125;29;20031;-62
2021/09/18 22:57:39;;;;;;;9.20;4.32;;;;;;;;;;4878668;29;20029;-59
2021/09/18 23:00:06;;;;;;;7.90;4.13;;;;;;;;;;4879155;29;20108;-60
2021/09/18 23:02:32;;;;;;;8.20;3.95;;;;;;;;;;4879068;29;20029;-60
2021/09/18 23:04:58;;;;;;;9.85;4.65;;;;;;;;;;4878977;29;20116;-61
2021/09/18 23:07:24;;;;;;;6.65;3.85;;;;;;;;;;4861953;29;20059;-60
2021/09/18 23:09:50;;;;;;;8.70;4.18;;;;;;;;;;4878952;29;20036;-61
2021/09/18 23:12:16;;;;;;;8.50;4.10;;;;;;;;;;4879092;29;20048;-60
2021/09/18 23:14:43;;;;;;;8.48;4.30;;;;;;;;;;4878943;29;20041;-62
2021/09/18 23:17:09;;;;;;;7.28;4.30;;;;;;;;;;4878718;29;20616;-61
2021/09/18 23:19:35;;;;;;;6.65;4.20;;;;;;;;;;4878896;29;20570;-60
2021/09/18 23:22:01;;;;;;;7.72;4.43;;;;;;;;;;4878595;29;20041;-59
2021/09/18 23:24:27;;;;;;;7.55;4.20;;;;;;;;;;4878640;29;20084;-59
2021/09/18 23:26:53;;;;;;;9.45;4.20;;;;;;;;;;4878114;29;20465;-59
2021/09/18 23:29:20;;;;;;;8.75;4.03;;;;;;;;;;4878842;29;20041;-59
2021/09/18 23:31:46;;;;;;;8.75;4.07;;;;;;;;;;4878333;29;20048;-59
2021/09/18 23:34:13;;;;;;;7.53;4.00;;;;;;;;;;4878597;29;20033;-59
2021/09/18 23:36:39;;;;;;;9.18;4.03;;;;;;;;;;4878490;29;20029;-59
2021/09/18 23:39:05;;;;;;;5.93;3.88;;;;;;;;;;4878259;29;20134;-59
2021/09/18 23:41:31;;;;;;;6.47;3.85;;;;;;;;;;4878132;29;20051;-61
2021/09/18 23:43:57;;;;;;;7.57;3.97;;;;;;;;;;4878140;29;20025;-60
2021/09/18 23:46:23;;;;;;;5.45;3.75;;;;;;;;;;4878340;29;20068;-58
2021/09/18 23:48:49;;;;;;;7.97;4.18;;;;;;;;;;4878342;29;20063;-60
2021/09/18 23:51:17;;;;;;;7.63;4.05;;;;;;;;;;4878133;29;20029;-59
2021/09/18 23:53:43;;;;;;;10.93;4.13;;;;;;;;;;4877826;29;20045;-59
2021/09/18 23:56:09;;;;;;;8.27;4.30;;;;;;;;;;4878192;29;20029;-59
2021/09/18 23:58:35;;;;;;;9.63;5.25;;;;;;;;;;4877898;29;20437;-59
